< < Back
Terminal Aerodrome Forecast


Current Version              Previous Versions:   1  2  3  4  5  6  7  8  9  

Terminal Aerodrome Forecast

294
FTUS42 KILM 030526
TAFILM
TAF
KILM 030526Z 0306/0406 VRB06KT P6SM SKC
     FM030800 VRB05KT P6SM VCSH SCT040
     FM031300 29007KT P6SM SCT060 SCT120 SCT250
     FM031900 24008KT P6SM VCTS SCT050CB BKN250
     FM032200 22007KT P6SM SCT050 BKN250=



Latest METAR

317
SAUS70 KWBC 030600 RRM
MTRILM
METAR KILM 030553Z AUTO 24006KT 10SM CLR 26/23 A2996 RMK AO2 SLP143
T02560228 10278 20250 58008


USA.gov is the U.S. government's official web portal to all federal, state and local government web resources and services.